sensor_id;sensor_type;location;lat;lon;timestamp;temperature;humidity
17998;DHT22;9124;48.144;17.098;2022-08-21T00:02:54;19.00;98.40
17998;DHT22;9124;48.144;17.098;2022-08-21T00:06:32;19.00;98.50
17998;DHT22;9124;48.144;17.098;2022-08-21T00:10:11;18.90;98.50
17998;DHT22;9124;48.144;17.098;2022-08-21T00:13:48;18.90;98.60
17998;DHT22;9124;48.144;17.098;2022-08-21T00:17:25;18.90;98.70
17998;DHT22;9124;48.144;17.098;2022-08-21T00:21:03;18.80;98.90
17998;DHT22;9124;48.144;17.098;2022-08-21T00:24:40;18.80;98.90
17998;DHT22;9124;48.144;17.098;2022-08-21T00:28:18;18.80;99.00
17998;DHT22;9124;48.144;17.098;2022-08-21T00:31:55;18.80;99.00
17998;DHT22;9124;48.144;17.098;2022-08-21T00:35:35;18.80;99.00
17998;DHT22;9124;48.144;17.098;2022-08-21T00:39:12;18.80;99.20
17998;DHT22;9124;48.144;17.098;2022-08-21T00:42:49;18.70;99.20
17998;DHT22;9124;48.144;17.098;2022-08-21T00:46:26;18.70;99.30
17998;DHT22;9124;48.144;17.098;2022-08-21T00:50:06;18.60;99.50
17998;DHT22;9124;48.144;17.098;2022-08-21T00:53:45;18.60;99.50
17998;DHT22;9124;48.144;17.098;2022-08-21T00:57:36;18.60;99.50
17998;DHT22;9124;48.144;17.098;2022-08-21T01:01:15;18.60;99.40
17998;DHT22;9124;48.144;17.098;2022-08-21T01:04:52;18.60;99.40
17998;DHT22;9124;48.144;17.098;2022-08-21T01:08:29;18.60;99.40
17998;DHT22;9124;48.144;17.098;2022-08-21T01:12:06;18.60;99.30
17998;DHT22;9124;48.144;17.098;2022-08-21T01:15:46;18.60;99.40
17998;DHT22;9124;48.144;17.098;2022-08-21T01:19:28;18.60;99.40
17998;DHT22;9124;48.144;17.098;2022-08-21T01:23:06;18.60;99.60
17998;DHT22;9124;48.144;17.098;2022-08-21T01:36:02;18.50;99.40
17998;DHT22;9124;48.144;17.098;2022-08-21T01:39:40;18.50;99.50
17998;DHT22;9124;48.144;17.098;2022-08-21T01:43:17;18.50;99.60
17998;DHT22;9124;48.144;17.098;2022-08-21T01:46:55;18.50;99.60
17998;DHT22;9124;48.144;17.098;2022-08-21T01:50:33;18.50;99.60
17998;DHT22;9124;48.144;17.098;2022-08-21T01:54:11;18.50;99.60
17998;DHT22;9124;48.144;17.098;2022-08-21T01:57:48;18.50;99.60
17998;DHT22;9124;48.144;17.098;2022-08-21T02:01:25;18.50;99.50
17998;DHT22;9124;48.144;17.098;2022-08-21T02:05:02;18.40;99.50
17998;DHT22;9124;48.144;17.098;2022-08-21T02:08:40;18.40;99.60
17998;DHT22;9124;48.144;17.098;2022-08-21T02:12:16;18.30;99.60
17998;DHT22;9124;48.144;17.098;2022-08-21T02:15:53;18.30;99.70
17998;DHT22;9124;48.144;17.098;2022-08-21T02:19:30;18.30;99.80
17998;DHT22;9124;48.144;17.098;2022-08-21T02:23:09;18.40;99.80
17998;DHT22;9124;48.144;17.098;2022-08-21T02:26:46;18.40;99.80
17998;DHT22;9124;48.144;17.098;2022-08-21T02:30:28;18.40;99.80
17998;DHT22;9124;48.144;17.098;2022-08-21T02:34:06;18.40;99.80
17998;DHT22;9124;48.144;17.098;2022-08-21T02:37:52;18.30;99.80
17998;DHT22;9124;48.144;17.098;2022-08-21T02:41:29;18.30;99.90
17998;DHT22;9124;48.144;17.098;2022-08-21T02:45:07;18.30;99.90
17998;DHT22;9124;48.144;17.098;2022-08-21T02:48:44;18.30;99.90
17998;DHT22;9124;48.144;17.098;2022-08-21T02:52:21;18.30;99.90
17998;DHT22;9124;48.144;17.098;2022-08-21T02:56:00;18.30;99.90
17998;DHT22;9124;48.144;17.098;2022-08-21T02:59:37;18.30;99.90
17998;DHT22;9124;48.144;17.098;2022-08-21T03:03:14;18.40;99.90
17998;DHT22;9124;48.144;17.098;2022-08-21T03:06:51;18.40;99.90
17998;DHT22;9124;48.144;17.098;2022-08-21T03:10:28;18.50;99.90
17998;DHT22;9124;48.144;17.098;2022-08-21T03:14:07;18.50;99.90
17998;DHT22;9124;48.144;17.098;2022-08-21T03:17:44;18.50;99.90
17998;DHT22;9124;48.144;17.098;2022-08-21T03:30:31;18.60;99.90
17998;DHT22;9124;48.144;17.098;2022-08-21T03:34:07;18.60;99.90
17998;DHT22;9124;48.144;17.098;2022-08-21T03:37:45;18.50;99.90
17998;DHT22;9124;48.144;17.098;2022-08-21T03:41:21;18.50;99.90
17998;DHT22;9124;48.144;17.098;2022-08-21T03:44:58;18.50;99.90
17998;DHT22;9124;48.144;17.098;2022-08-21T03:48:37;18.50;99.90
17998;DHT22;9124;48.144;17.098;2022-08-21T03:52:14;18.50;99.90
17998;DHT22;9124;48.144;17.098;2022-08-21T03:55:52;18.50;99.90
17998;DHT22;9124;48.144;17.098;2022-08-21T03:59:29;18.50;99.90
17998;DHT22;9124;48.144;17.098;2022-08-21T04:03:06;18.50;99.90
17998;DHT22;9124;48.144;17.098;2022-08-21T04:06:44;18.50;99.90
17998;DHT22;9124;48.144;17.098;2022-08-21T04:10:21;18.50;99.90
17998;DHT22;9124;48.144;17.098;2022-08-21T04:13:58;18.50;99.90
17998;DHT22;9124;48.144;17.098;2022-08-21T04:17:34;18.40;99.90
17998;DHT22;9124;48.144;17.098;2022-08-21T04:21:12;18.40;99.90
17998;DHT22;9124;48.144;17.098;2022-08-21T04:24:49;18.40;99.90
17998;DHT22;9124;48.144;17.098;2022-08-21T04:28:27;18.40;99.90
17998;DHT22;9124;48.144;17.098;2022-08-21T04:32:04;18.40;99.90
17998;DHT22;9124;48.144;17.098;2022-08-21T04:35:41;18.40;99.90
17998;DHT22;9124;48.144;17.098;2022-08-21T04:39:18;18.40;99.90
17998;DHT22;9124;48.144;17.098;2022-08-21T04:43:02;18.40;99.90
17998;DHT22;9124;48.144;17.098;2022-08-21T04:46:40;18.50;99.90
17998;DHT22;9124;48.144;17.098;2022-08-21T04:50:17;18.60;99.90
17998;DHT22;9124;48.144;17.098;2022-08-21T04:54:17;18.60;99.90
17998;DHT22;9124;48.144;17.098;2022-08-21T04:57:56;18.60;99.90
17998;DHT22;9124;48.144;17.098;2022-08-21T05:01:36;18.60;99.90
17998;DHT22;9124;48.144;17.098;2022-08-21T05:14:33;18.50;99.90
17998;DHT22;9124;48.144;17.098;2022-08-21T05:31:57;19.10;99.90
17998;DHT22;9124;48.144;17.098;2022-08-21T05:35:35;19.30;99.90
17998;DHT22;9124;48.144;17.098;2022-08-21T05:39:13;19.40;99.70
17998;DHT22;9124;48.144;17.098;2022-08-21T05:42:51;19.50;99.50
17998;DHT22;9124;48.144;17.098;2022-08-21T05:46:28;19.60;99.10
17998;DHT22;9124;48.144;17.098;2022-08-21T05:50:05;19.70;98.90
17998;DHT22;9124;48.144;17.098;2022-08-21T05:53:43;19.80;98.70
17998;DHT22;9124;48.144;17.098;2022-08-21T05:57:21;20.00;98.50
17998;DHT22;9124;48.144;17.098;2022-08-21T06:00:58;20.10;98.00
17998;DHT22;9124;48.144;17.098;2022-08-21T06:04:37;20.30;97.70
17998;DHT22;9124;48.144;17.098;2022-08-21T06:08:16;20.40;97.30
17998;DHT22;9124;48.144;17.098;2022-08-21T06:11:53;20.50;97.00
17998;DHT22;9124;48.144;17.098;2022-08-21T06:15:30;20.60;96.70
17998;DHT22;9124;48.144;17.098;2022-08-21T06:19:06;20.80;96.40
17998;DHT22;9124;48.144;17.098;2022-08-21T06:22:43;21.20;95.90
17998;DHT22;9124;48.144;17.098;2022-08-21T06:26:20;21.50;95.20
17998;DHT22;9124;48.144;17.098;2022-08-21T06:29:59;21.80;94.60
17998;DHT22;9124;48.144;17.098;2022-08-21T06:33:49;22.30;94.10
17998;DHT22;9124;48.144;17.098;2022-08-21T06:37:26;23.00;93.60
17998;DHT22;9124;48.144;17.098;2022-08-21T06:41:04;23.40;92.50
17998;DHT22;9124;48.144;17.098;2022-08-21T06:44:41;24.20;91.90
17998;DHT22;9124;48.144;17.098;2022-08-21T06:48:18;25.40;91.00
17998;DHT22;9124;48.144;17.098;2022-08-21T06:51:55;27.00;88.50
17998;DHT22;9124;48.144;17.098;2022-08-21T06:55:34;28.40;83.00
17998;DHT22;9124;48.144;17.098;2022-08-21T06:59:16;29.40;75.80
17998;DHT22;9124;48.144;17.098;2022-08-21T07:02:56;28.60;71.80
17998;DHT22;9124;48.144;17.098;2022-08-21T07:06:33;28.70;70.10
17998;DHT22;9124;48.144;17.098;2022-08-21T07:10:10;27.80;68.50
17998;DHT22;9124;48.144;17.098;2022-08-21T07:13:47;26.80;69.10
17998;DHT22;9124;48.144;17.098;2022-08-21T07:17:24;26.10;69.70
17998;DHT22;9124;48.144;17.098;2022-08-21T07:21:02;26.00;70.30
17998;DHT22;9124;48.144;17.098;2022-08-21T07:24:40;27.10;70.20
17998;DHT22;9124;48.144;17.098;2022-08-21T07:28:17;29.40;68.00
17998;DHT22;9124;48.144;17.098;2022-08-21T07:31:53;29.80;64.30
17998;DHT22;9124;48.144;17.098;2022-08-21T07:35:30;32.10;61.50
17998;DHT22;9124;48.144;17.098;2022-08-21T07:39:10;33.90;57.70
17998;DHT22;9124;48.144;17.098;2022-08-21T07:42:48;35.90;53.90
17998;DHT22;9124;48.144;17.098;2022-08-21T07:55:35;38.40;44.00
17998;DHT22;9124;48.144;17.098;2022-08-21T08:08:32;37.60;41.70
17998;DHT22;9124;48.144;17.098;2022-08-21T08:12:09;36.60;41.80
17998;DHT22;9124;48.144;17.098;2022-08-21T08:15:46;36.30;41.90
17998;DHT22;9124;48.144;17.098;2022-08-21T08:28:34;33.90;43.60
17998;DHT22;9124;48.144;17.098;2022-08-21T08:32:10;32.40;44.40
17998;DHT22;9124;48.144;17.098;2022-08-21T08:35:49;30.20;46.50
17998;DHT22;9124;48.144;17.098;2022-08-21T08:39:27;28.90;48.50
17998;DHT22;9124;48.144;17.098;2022-08-21T08:43:04;27.90;50.10
17998;DHT22;9124;48.144;17.098;2022-08-21T08:46:47;27.10;51.60
17998;DHT22;9124;48.144;17.098;2022-08-21T08:50:41;26.10;53.40
17998;DHT22;9124;48.144;17.098;2022-08-21T08:54:49;25.20;55.20
17998;DHT22;9124;48.144;17.098;2022-08-21T08:58:39;24.60;56.70
17998;DHT22;9124;48.144;17.098;2022-08-21T09:02:18;24.20;57.80
17998;DHT22;9124;48.144;17.098;2022-08-21T09:06:36;23.80;58.90
17998;DHT22;9124;48.144;17.098;2022-08-21T09:10:20;23.40;60.50
17998;DHT22;9124;48.144;17.098;2022-08-21T09:14:45;23.10;61.80
17998;DHT22;9124;48.144;17.098;2022-08-21T09:22:31;22.90;64.80
17998;DHT22;9124;48.144;17.098;2022-08-21T09:26:18;22.60;66.00
17998;DHT22;9124;48.144;17.098;2022-08-21T09:29:55;22.40;67.60
17998;DHT22;9124;48.144;17.098;2022-08-21T09:33:33;22.40;67.90
17998;DHT22;9124;48.144;17.098;2022-08-21T09:37:17;22.50;69.00
17998;DHT22;9124;48.144;17.098;2022-08-21T09:41:07;22.70;69.90
17998;DHT22;9124;48.144;17.098;2022-08-21T09:44:44;22.80;69.90
17998;DHT22;9124;48.144;17.098;2022-08-21T09:48:25;22.60;70.20
17998;DHT22;9124;48.144;17.098;2022-08-21T09:52:06;22.50;71.00
17998;DHT22;9124;48.144;17.098;2022-08-21T09:55:54;22.50;71.50
17998;DHT22;9124;48.144;17.098;2022-08-21T10:18:34;22.60;73.50
17998;DHT22;9124;48.144;17.098;2022-08-21T10:50:48;23.40;74.10
17998;DHT22;9124;48.144;17.098;2022-08-21T10:59:28;23.50;74.10
17998;DHT22;9124;48.144;17.098;2022-08-21T11:03:23;23.20;75.10
17998;DHT22;9124;48.144;17.098;2022-08-21T11:07:08;23.10;75.00
17998;DHT22;9124;48.144;17.098;2022-08-21T11:10:57;23.30;75.30
17998;DHT22;9124;48.144;17.098;2022-08-21T11:15:00;23.50;75.10
17998;DHT22;9124;48.144;17.098;2022-08-21T11:18:45;24.50;74.30
17998;DHT22;9124;48.144;17.098;2022-08-21T11:22:33;25.00;72.40
17998;DHT22;9124;48.144;17.098;2022-08-21T11:26:52;25.10;71.30
17998;DHT22;9124;48.144;17.098;2022-08-21T11:30:52;25.10;71.00
17998;DHT22;9124;48.144;17.098;2022-08-21T11:45:54;25.20;68.70
17998;DHT22;9124;48.144;17.098;2022-08-21T11:53:21;24.70;68.70
17998;DHT22;9124;48.144;17.098;2022-08-21T11:57:20;24.20;69.20
17998;DHT22;9124;48.144;17.098;2022-08-21T12:01:28;24.00;69.90
17998;DHT22;9124;48.144;17.098;2022-08-21T12:05:11;23.90;70.50
17998;DHT22;9124;48.144;17.098;2022-08-21T12:08:59;24.00;70.70
17998;DHT22;9124;48.144;17.098;2022-08-21T12:12:39;24.20;70.50
17998;DHT22;9124;48.144;17.098;2022-08-21T12:25:25;25.10;68.80
17998;DHT22;9124;48.144;17.098;2022-08-21T12:29:11;25.30;68.60
17998;DHT22;9124;48.144;17.098;2022-08-21T12:33:02;25.50;68.40
17998;DHT22;9124;48.144;17.098;2022-08-21T12:36:52;25.60;68.80
17998;DHT22;9124;48.144;17.098;2022-08-21T12:40:40;26.00;68.40
17998;DHT22;9124;48.144;17.098;2022-08-21T12:44:24;26.20;67.70
17998;DHT22;9124;48.144;17.098;2022-08-21T12:55:44;26.70;65.20
17998;DHT22;9124;48.144;17.098;2022-08-21T12:59:20;26.90;64.40
17998;DHT22;9124;48.144;17.098;2022-08-21T13:02:57;27.10;63.40
17998;DHT22;9124;48.144;17.098;2022-08-21T13:06:41;27.10;62.50
17998;DHT22;9124;48.144;17.098;2022-08-21T13:10:30;27.40;61.80
17998;DHT22;9124;48.144;17.098;2022-08-21T13:17:58;27.30;60.70
17998;DHT22;9124;48.144;17.098;2022-08-21T13:21:41;27.20;60.50
17998;DHT22;9124;48.144;17.098;2022-08-21T13:25:24;26.90;60.20
17998;DHT22;9124;48.144;17.098;2022-08-21T13:29:11;26.60;60.10
17998;DHT22;9124;48.144;17.098;2022-08-21T13:32:54;26.20;60.30
17998;DHT22;9124;48.144;17.098;2022-08-21T13:36:36;26.00;60.50
17998;DHT22;9124;48.144;17.098;2022-08-21T13:40:20;26.00;60.80
17998;DHT22;9124;48.144;17.098;2022-08-21T13:44:22;25.70;60.80
17998;DHT22;9124;48.144;17.098;2022-08-21T13:48:03;25.30;61.30
17998;DHT22;9124;48.144;17.098;2022-08-21T13:51:42;25.00;61.90
17998;DHT22;9124;48.144;17.098;2022-08-21T13:55:19;24.60;62.70
17998;DHT22;9124;48.144;17.098;2022-08-21T13:58:58;24.20;63.50
17998;DHT22;9124;48.144;17.098;2022-08-21T14:02:38;24.00;64.20
17998;DHT22;9124;48.144;17.098;2022-08-21T14:06:25;23.60;64.90
17998;DHT22;9124;48.144;17.098;2022-08-21T14:10:41;23.40;66.10
17998;DHT22;9124;48.144;17.098;2022-08-21T14:23:26;22.20;70.70
17998;DHT22;9124;48.144;17.098;2022-08-21T14:27:06;22.10;71.90
17998;DHT22;9124;48.144;17.098;2022-08-21T14:30:43;22.10;72.90
17998;DHT22;9124;48.144;17.098;2022-08-21T14:34:21;22.10;73.50
17998;DHT22;9124;48.144;17.098;2022-08-21T14:37:58;22.00;74.00
17998;DHT22;9124;48.144;17.098;2022-08-21T14:41:36;22.00;74.30
17998;DHT22;9124;48.144;17.098;2022-08-21T14:45:19;21.90;75.00
17998;DHT22;9124;48.144;17.098;2022-08-21T14:48:59;21.80;75.80
17998;DHT22;9124;48.144;17.098;2022-08-21T14:52:37;21.70;76.00
17998;DHT22;9124;48.144;17.098;2022-08-21T14:56:15;21.60;76.50
17998;DHT22;9124;48.144;17.098;2022-08-21T14:59:52;21.50;77.00
17998;DHT22;9124;48.144;17.098;2022-08-21T15:03:29;21.30;77.50
17998;DHT22;9124;48.144;17.098;2022-08-21T15:07:05;21.30;78.10
17998;DHT22;9124;48.144;17.098;2022-08-21T15:10:42;21.20;78.50
17998;DHT22;9124;48.144;17.098;2022-08-21T15:14:28;21.30;78.70
17998;DHT22;9124;48.144;17.098;2022-08-21T15:18:06;21.20;79.30
17998;DHT22;9124;48.144;17.098;2022-08-21T15:21:43;21.10;79.40
17998;DHT22;9124;48.144;17.098;2022-08-21T15:25:20;21.10;79.90
17998;DHT22;9124;48.144;17.098;2022-08-21T15:28:58;21.20;80.10
17998;DHT22;9124;48.144;17.098;2022-08-21T15:32:35;21.10;80.20
17998;DHT22;9124;48.144;17.098;2022-08-21T15:36:12;21.10;80.60
17998;DHT22;9124;48.144;17.098;2022-08-21T15:39:50;21.00;80.60
17998;DHT22;9124;48.144;17.098;2022-08-21T15:43:35;21.00;80.70
17998;DHT22;9124;48.144;17.098;2022-08-21T15:47:18;21.00;80.90
17998;DHT22;9124;48.144;17.098;2022-08-21T15:50:55;21.00;81.10
17998;DHT22;9124;48.144;17.098;2022-08-21T15:54:32;20.90;81.20
17998;DHT22;9124;48.144;17.098;2022-08-21T15:58:13;20.90;81.50
17998;DHT22;9124;48.144;17.098;2022-08-21T16:10:56;20.70;82.20
17998;DHT22;9124;48.144;17.098;2022-08-21T16:14:34;20.60;82.30
17998;DHT22;9124;48.144;17.098;2022-08-21T16:18:13;20.50;82.70
17998;DHT22;9124;48.144;17.098;2022-08-21T16:21:49;20.50;82.80
17998;DHT22;9124;48.144;17.098;2022-08-21T16:25:27;20.50;83.00
17998;DHT22;9124;48.144;17.098;2022-08-21T16:29:04;20.40;82.90
17998;DHT22;9124;48.144;17.098;2022-08-21T16:32:43;20.40;83.10
17998;DHT22;9124;48.144;17.098;2022-08-21T16:36:20;20.40;83.30
17998;DHT22;9124;48.144;17.098;2022-08-21T16:39:58;20.40;83.50
17998;DHT22;9124;48.144;17.098;2022-08-21T16:43:35;20.40;83.50
17998;DHT22;9124;48.144;17.098;2022-08-21T16:47:12;20.40;83.60
17998;DHT22;9124;48.144;17.098;2022-08-21T16:50:48;20.30;83.70
17998;DHT22;9124;48.144;17.098;2022-08-21T16:54:26;20.30;83.90
17998;DHT22;9124;48.144;17.098;2022-08-21T16:58:12;20.30;84.00
17998;DHT22;9124;48.144;17.098;2022-08-21T17:01:52;20.30;84.20
17998;DHT22;9124;48.144;17.098;2022-08-21T17:05:30;20.40;84.10
17998;DHT22;9124;48.144;17.098;2022-08-21T17:09:07;20.30;84.10
17998;DHT22;9124;48.144;17.098;2022-08-21T17:12:53;20.30;84.80
17998;DHT22;9124;48.144;17.098;2022-08-21T17:16:31;20.30;84.30
17998;DHT22;9124;48.144;17.098;2022-08-21T17:20:09;20.20;84.40
17998;DHT22;9124;48.144;17.098;2022-08-21T17:23:47;20.10;85.20
17998;DHT22;9124;48.144;17.098;2022-08-21T17:27:25;20.10;84.70
17998;DHT22;9124;48.144;17.098;2022-08-21T17:31:05;20.10;84.70
17998;DHT22;9124;48.144;17.098;2022-08-21T17:34:43;20.10;84.50
17998;DHT22;9124;48.144;17.098;2022-08-21T17:38:21;20.10;84.40
17998;DHT22;9124;48.144;17.098;2022-08-21T17:42:00;20.20;84.40
17998;DHT22;9124;48.144;17.098;2022-08-21T17:45:38;20.10;84.60
17998;DHT22;9124;48.144;17.098;2022-08-21T17:49:14;20.10;84.80
17998;DHT22;9124;48.144;17.098;2022-08-21T17:52:52;20.00;85.00
17998;DHT22;9124;48.144;17.098;2022-08-21T17:56:32;20.00;85.40
17998;DHT22;9124;48.144;17.098;2022-08-21T18:00:13;19.90;85.70
17998;DHT22;9124;48.144;17.098;2022-08-21T18:03:50;19.80;86.10
17998;DHT22;9124;48.144;17.098;2022-08-21T18:07:27;19.70;86.20
17998;DHT22;9124;48.144;17.098;2022-08-21T18:11:04;19.60;86.80
17998;DHT22;9124;48.144;17.098;2022-08-21T18:14:41;19.50;87.40
17998;DHT22;9124;48.144;17.098;2022-08-21T18:18:17;19.40;88.00
17998;DHT22;9124;48.144;17.098;2022-08-21T18:27:23;19.20;89.30
17998;DHT22;9124;48.144;17.098;2022-08-21T18:31:01;19.00;90.00
17998;DHT22;9124;48.144;17.098;2022-08-21T18:34:39;18.80;90.50
17998;DHT22;9124;48.144;17.098;2022-08-21T18:38:17;18.60;90.90
17998;DHT22;9124;48.144;17.098;2022-08-21T18:41:57;18.50;91.30
17998;DHT22;9124;48.144;17.098;2022-08-21T18:45:36;18.40;91.80
17998;DHT22;9124;48.144;17.098;2022-08-21T18:49:12;18.20;92.30
17998;DHT22;9124;48.144;17.098;2022-08-21T18:52:49;18.10;92.70
17998;DHT22;9124;48.144;17.098;2022-08-21T18:56:26;17.90;93.10
17998;DHT22;9124;48.144;17.098;2022-08-21T19:00:08;17.80;93.70
17998;DHT22;9124;48.144;17.098;2022-08-21T19:03:46;17.70;94.40
17998;DHT22;9124;48.144;17.098;2022-08-21T19:07:23;17.60;94.90
17998;DHT22;9124;48.144;17.098;2022-08-21T19:11:00;17.50;95.20
17998;DHT22;9124;48.144;17.098;2022-08-21T19:14:38;17.50;95.90
17998;DHT22;9124;48.144;17.098;2022-08-21T19:18:15;17.40;96.30
17998;DHT22;9124;48.144;17.098;2022-08-21T19:21:53;17.30;97.00
17998;DHT22;9124;48.144;17.098;2022-08-21T19:25:29;17.30;97.50
17998;DHT22;9124;48.144;17.098;2022-08-21T19:29:08;17.30;97.80
17998;DHT22;9124;48.144;17.098;2022-08-21T19:32:46;17.30;98.30
17998;DHT22;9124;48.144;17.098;2022-08-21T19:36:23;17.20;98.70
17998;DHT22;9124;48.144;17.098;2022-08-21T19:39:59;17.20;99.00
17998;DHT22;9124;48.144;17.098;2022-08-21T19:43:52;17.20;99.30
17998;DHT22;9124;48.144;17.098;2022-08-21T19:47:29;17.20;99.80
17998;DHT22;9124;48.144;17.098;2022-08-21T19:51:06;17.10;99.90
17998;DHT22;9124;48.144;17.098;2022-08-21T19:54:43;17.10;99.90
17998;DHT22;9124;48.144;17.098;2022-08-21T19:58:47;17.10;99.90
17998;DHT22;9124;48.144;17.098;2022-08-21T20:02:23;17.00;99.90
17998;DHT22;9124;48.144;17.098;2022-08-21T20:06:00;17.00;99.90
17998;DHT22;9124;48.144;17.098;2022-08-21T20:09:37;16.90;99.90
17998;DHT22;9124;48.144;17.098;2022-08-21T20:13:14;16.90;99.90
17998;DHT22;9124;48.144;17.098;2022-08-21T20:16:51;16.80;99.90
17998;DHT22;9124;48.144;17.098;2022-08-21T20:20:29;16.70;99.90
17998;DHT22;9124;48.144;17.098;2022-08-21T20:24:06;16.70;99.90
17998;DHT22;9124;48.144;17.098;2022-08-21T20:37:10;16.40;99.90
17998;DHT22;9124;48.144;17.098;2022-08-21T20:40:49;16.30;99.90
17998;DHT22;9124;48.144;17.098;2022-08-21T20:44:30;16.30;99.90
17998;DHT22;9124;48.144;17.098;2022-08-21T20:48:32;16.30;99.90
17998;DHT22;9124;48.144;17.098;2022-08-21T20:52:09;16.20;99.90
17998;DHT22;9124;48.144;17.098;2022-08-21T20:55:48;16.20;99.90
17998;DHT22;9124;48.144;17.098;2022-08-21T20:59:39;16.20;99.90
17998;DHT22;9124;48.144;17.098;2022-08-21T21:03:31;16.20;99.90
17998;DHT22;9124;48.144;17.098;2022-08-21T21:07:14;16.20;99.90
17998;DHT22;9124;48.144;17.098;2022-08-21T21:11:08;16.20;99.90
17998;DHT22;9124;48.144;17.098;2022-08-21T21:14:51;16.20;99.90
17998;DHT22;9124;48.144;17.098;2022-08-21T21:18:37;16.20;99.90
17998;DHT22;9124;48.144;17.098;2022-08-21T21:22:20;16.20;99.90
17998;DHT22;9124;48.144;17.098;2022-08-21T21:26:14;16.20;99.90
17998;DHT22;9124;48.144;17.098;2022-08-21T21:30:09;16.10;99.90
17998;DHT22;9124;48.144;17.098;2022-08-21T21:33:47;16.20;99.90
17998;DHT22;9124;48.144;17.098;2022-08-21T21:37:36;16.20;99.90
17998;DHT22;9124;48.144;17.098;2022-08-21T21:56:54;16.10;99.90
17998;DHT22;9124;48.144;17.098;2022-08-21T22:00:38;16.10;99.90
17998;DHT22;9124;48.144;17.098;2022-08-21T22:16:08;16.10;99.90
17998;DHT22;9124;48.144;17.098;2022-08-21T22:19:47;16.10;99.90
17998;DHT22;9124;48.144;17.098;2022-08-21T22:23:31;16.20;99.90
17998;DHT22;9124;48.144;17.098;2022-08-21T22:36:31;16.30;99.90
17998;DHT22;9124;48.144;17.098;2022-08-21T22:40:11;16.40;99.90
17998;DHT22;9124;48.144;17.098;2022-08-21T22:43:51;16.40;99.90
17998;DHT22;9124;48.144;17.098;2022-08-21T22:47:38;16.40;99.90
17998;DHT22;9124;48.144;17.098;2022-08-21T22:55:37;16.40;99.90
17998;DHT22;9124;48.144;17.098;2022-08-21T23:03:47;16.40;99.90
17998;DHT22;9124;48.144;17.098;2022-08-21T23:07:39;16.40;99.90
17998;DHT22;9124;48.144;17.098;2022-08-21T23:11:35;16.50;99.90
17998;DHT22;9124;48.144;17.098;2022-08-21T23:15:13;16.50;99.90
17998;DHT22;9124;48.144;17.098;2022-08-21T23:27:19;16.50;99.90
17998;DHT22;9124;48.144;17.098;2022-08-21T23:31:17;16.50;99.90
17998;DHT22;9124;48.144;17.098;2022-08-21T23:46:42;16.50;99.90
17998;DHT22;9124;48.144;17.098;2022-08-21T23:50:25;16.50;99.90
17998;DHT22;9124;48.144;17.098;2022-08-21T23:54:18;16.50;99.90
17998;DHT22;9124;48.144;17.098;2022-08-21T23:58:39;16.50;99.90
